Time;durP1;ratioP1;P1;durP2;ratioP2;P2;SDS_P1;SDS_P2;PMS_P1;PMS_P2;Temp;Humidity;BMP_temperature;BMP_pressure;BME280_temperature;BME280_humidity;BME280_pressure;Samples;Min_cycle;Max_cycle;Signal;HPM_P1;HPM_P2
2022/11/11 00:00:34;;;;;;;9.05;5.47;;;14.20;96.70;;;;;;5064506;28;20328;-73
2022/11/11 00:03:22;;;;;;;;;;;14.10;96.70;;;;;;5058527;28;20052;-73
2022/11/11 00:06:12;;;;;;;8.55;6.50;;;14.10;96.70;;;;;;5065875;28;20013;-73
2022/11/11 00:08:59;;;;;;;10.07;5.95;;;14.00;96.70;;;;;;5054843;28;20048;-73
2022/11/11 00:11:45;;;;;;;6.70;5.85;;;14.00;96.70;;;;;;5063112;28;20887;-74
2022/11/11 00:14:32;;;;;;;8.02;5.63;;;14.00;96.70;;;;;;5063445;28;20182;-73
2022/11/11 00:26:35;;;;;;;7.30;6.10;;;14.00;96.70;;;;;;5063432;28;20560;-73
2022/11/11 00:29:26;;;;;;;7.63;6.10;;;14.00;96.70;;;;;;5060120;28;20055;-74
2022/11/11 00:32:30;;;;;;;9.65;6.55;;;14.00;96.70;;;;;;5056427;28;20183;-73
2022/11/11 00:41:29;;;;;;;7.50;5.93;;;13.90;96.70;;;;;;5062146;28;20133;-73
2022/11/11 00:44:15;;;;;;;7.65;5.90;;;13.90;96.70;;;;;;5064773;28;20582;-73
2022/11/11 00:53:18;;;;;;;7.47;5.63;;;13.70;96.70;;;;;;5058301;28;20076;-73
2022/11/11 00:56:12;;;;;;;8.25;5.75;;;13.70;96.70;;;;;;5057755;28;20102;-73
2022/11/11 00:58:59;;;;;;;6.95;6.22;;;13.80;96.70;;;;;;5065030;28;20063;-73
2022/11/11 01:01:45;;;;;;;7.65;5.70;;;13.80;96.70;;;;;;5062256;28;20934;-73
2022/11/11 01:04:32;;;;;;;10.35;6.32;;;13.80;96.70;;;;;;5061819;28;20051;-73
2022/11/11 01:07:18;;;;;;;7.50;6.50;;;13.80;96.70;;;;;;5064227;28;20056;-73
2022/11/11 01:10:06;;;;;;;8.80;6.53;;;13.80;96.70;;;;;;5057187;28;20070;-74
2022/11/11 01:13:10;;;;;;;;;;;13.80;96.70;;;;;;5058860;28;20097;-73
2022/11/11 01:16:00;;;;;;;10.05;6.72;;;13.80;96.70;;;;;;5055820;28;19977;-73
2022/11/11 01:18:46;;;;;;;7.15;6.30;;;13.70;96.70;;;;;;5061773;28;20060;-73
2022/11/11 01:21:32;;;;;;;9.15;5.85;;;13.70;96.70;;;;;;5060558;28;20054;-74
2022/11/11 01:24:20;;;;;;;5.80;5.20;;;13.60;96.70;;;;;;5059935;28;20145;-74
2022/11/11 01:27:06;;;;;;;7.87;6.50;;;13.60;96.70;;;;;;5059321;28;20141;-73
2022/11/11 01:29:53;;;;;;;8.82;6.05;;;13.60;96.70;;;;;;5056885;28;20059;-73
2022/11/11 01:32:40;;;;;;;9.25;6.68;;;13.60;96.70;;;;;;5063143;28;20056;-73
2022/11/11 01:35:27;;;;;;;8.07;6.40;;;13.60;96.70;;;;;;5059930;28;20161;-73
2022/11/11 01:38:13;;;;;;;;;;;13.50;96.70;;;;;;5054087;28;20144;-73
2022/11/11 01:41:00;;;;;;;9.27;6.63;;;13.60;96.70;;;;;;5055206;28;20396;-73
2022/11/11 01:43:47;;;;;;;9.40;6.28;;;13.50;96.70;;;;;;5053069;28;20497;-73
2022/11/11 01:46:38;;;;;;;7.63;5.72;;;13.50;96.70;;;;;;5064763;28;20134;-74
2022/11/11 01:49:30;;;;;;;7.80;5.93;;;13.60;96.70;;;;;;5055633;28;20190;-74
2022/11/11 01:52:21;;;;;;;6.90;5.57;;;13.40;96.70;;;;;;5060381;28;20062;-73
2022/11/11 01:55:12;;;;;;;7.22;5.43;;;13.40;96.70;;;;;;5059047;28;20047;-73
2022/11/11 01:58:02;;;;;;;6.05;5.43;;;13.40;96.70;;;;;;5057360;28;20182;-73
2022/11/11 02:00:50;;;;;;;8.13;5.68;;;13.40;96.70;;;;;;5057548;28;20162;-73
2022/11/11 02:03:40;;;;;;;8.88;5.60;;;13.40;96.70;;;;;;5053054;28;20063;-73
2022/11/11 02:06:28;;;;;;;5.30;4.55;;;13.50;96.70;;;;;;5056238;28;20059;-74
2022/11/11 02:09:15;;;;;;;6.63;5.65;;;13.50;96.70;;;;;;5059329;28;20153;-73
2022/11/11 02:15:11;;;;;;;6.90;4.85;;;13.50;96.70;;;;;;5057664;28;20029;-74
2022/11/11 02:17:59;;;;;;;5.43;4.45;;;13.50;96.70;;;;;;5059100;28;20170;-73
2022/11/11 02:20:47;;;;;;;6.00;4.70;;;13.50;96.70;;;;;;5058351;28;20055;-74
2022/11/11 02:23:39;;;;;;;7.28;4.63;;;13.50;96.70;;;;;;5060139;28;20106;-73
2022/11/11 02:26:30;;;;;;;5.47;4.55;;;13.50;96.70;;;;;;5059811;28;20503;-73
2022/11/11 02:29:19;;;;;;;4.45;4.03;;;13.40;96.70;;;;;;5061522;28;20544;-73
2022/11/11 02:32:05;;;;;;;6.20;3.83;;;13.40;96.70;;;;;;5059472;28;20217;-73
2022/11/11 02:34:52;;;;;;;4.68;4.18;;;13.40;96.70;;;;;;5059272;28;20093;-73
2022/11/11 02:37:38;;;;;;;4.40;3.88;;;13.40;96.70;;;;;;5057590;28;20063;-73
2022/11/11 02:40:29;;;;;;;4.55;3.90;;;13.30;96.70;;;;;;5061457;28;20064;-74
2022/11/11 02:43:18;;;;;;;5.10;4.28;;;13.30;96.70;;;;;;5062791;28;20068;-73
2022/11/11 02:46:06;;;;;;;5.05;3.67;;;13.30;96.70;;;;;;5059649;28;20056;-74
2022/11/11 02:48:53;;;;;;;5.82;3.85;;;13.30;96.70;;;;;;5047435;28;20114;-73
2022/11/11 02:51:39;;;;;;;5.07;4.57;;;13.20;96.70;;;;;;5054901;28;20063;-73
2022/11/11 02:54:26;;;;;;;4.32;3.92;;;13.20;96.70;;;;;;5062274;28;20071;-74
2022/11/11 02:57:13;;;;;;;4.90;3.72;;;13.20;96.70;;;;;;5059105;28;20063;-73
2022/11/11 03:00:02;;;;;;;4.22;3.45;;;13.20;96.70;;;;;;5054346;28;20808;-73
2022/11/11 03:02:49;;;;;;;6.20;3.67;;;13.20;96.70;;;;;;5061230;28;20110;-73
2022/11/11 03:05:36;;;;;;;4.05;3.60;;;13.10;96.70;;;;;;5059339;28;20055;-73
2022/11/11 03:08:23;;;;;;;;;;;13.10;96.70;;;;;;5058031;28;20636;-75
2022/11/11 03:11:10;;;;;;;5.95;4.45;;;13.10;96.70;;;;;;5055391;28;19935;-72
2022/11/11 03:13:57;;;;;;;;;;;13.10;96.70;;;;;;5059333;28;20424;-72
2022/11/11 03:19:50;;;;;;;6.03;3.75;;;13.00;96.70;;;;;;5053756;28;20112;-72
2022/11/11 03:22:36;;;;;;;5.18;3.78;;;13.00;96.70;;;;;;5059304;28;20082;-72
2022/11/11 03:25:42;;;;;;;4.97;4.05;;;13.10;96.70;;;;;;5057427;28;20051;-72
2022/11/11 03:28:28;;;;;;;5.50;3.95;;;13.10;96.70;;;;;;5055386;28;20047;-72
2022/11/11 03:31:15;;;;;;;5.18;4.03;;;13.10;96.70;;;;;;5056700;28;20051;-71
2022/11/11 03:34:18;;;;;;;4.20;3.80;;;13.10;96.70;;;;;;5053923;28;20417;-72
2022/11/11 03:40:12;;;;;;;5.03;3.53;;;12.60;96.70;;;;;;5055764;28;20051;-72
2022/11/11 03:42:58;;;;;;;4.15;3.42;;;12.50;96.70;;;;;;5053089;28;20067;-73
2022/11/11 03:45:50;;;;;;;5.28;3.45;;;12.50;96.70;;;;;;5046949;28;20052;-72
2022/11/11 03:48:37;;;;;;;;;;;12.60;96.70;;;;;;5051919;28;20056;-72
2022/11/11 03:51:25;;;;;;;4.53;3.38;;;12.60;96.70;;;;;;5058443;28;19931;-72
2022/11/11 03:54:11;;;;;;;5.38;3.47;;;12.60;96.70;;;;;;5057220;28;20052;-73
2022/11/11 04:00:04;;;;;;;5.03;3.63;;;12.50;96.70;;;;;;5059295;28;20425;-72
2022/11/11 04:12:22;;;;;;;4.28;3.88;;;12.50;96.70;;;;;;5050228;28;20175;-72
2022/11/11 04:21:42;;;;;;;4.03;3.63;;;12.60;96.70;;;;;;5042042;28;20187;-72
2022/11/11 04:21:43;;;;;;;4.95;3.85;;;12.50;96.70;;;;;;5053265;28;20116;-73
2022/11/11 04:27:36;;;;;;;5.13;4.10;;;12.60;96.70;;;;;;5052926;28;20199;-73
2022/11/11 04:30:22;;;;;;;5.07;4.27;;;12.60;96.70;;;;;;5065650;28;20051;-73
2022/11/11 04:33:09;;;;;;;7.35;4.20;;;12.60;96.70;;;;;;5058310;28;20348;-73
2022/11/11 04:35:56;;;;;;;4.50;3.88;;;12.60;96.70;;;;;;5064115;28;20059;-73
2022/11/11 04:41:49;;;;;;;4.65;3.45;;;12.50;96.70;;;;;;5051327;28;20278;-73
2022/11/11 04:48:03;;;;;;;6.60;3.85;;;12.60;96.70;;;;;;5059368;28;20532;-72
2022/11/11 04:50:49;;;;;;;5.43;3.40;;;12.50;96.70;;;;;;5063382;28;20535;-73
2022/11/11 04:53:36;;;;;;;6.85;4.00;;;12.60;96.70;;;;;;5061094;28;20055;-73
2022/11/11 04:59:29;;;;;;;8.35;3.70;;;12.60;96.70;;;;;;5062577;28;20368;-73
2022/11/11 05:05:20;;;;;;;4.43;4.03;;;12.50;96.70;;;;;;5060982;28;20091;-73
2022/11/11 05:11:13;;;;;;;6.35;3.38;;;12.60;96.70;;;;;;5063174;28;20201;-73
2022/11/11 05:25:24;;;;;;;4.60;3.95;;;12.60;96.70;;;;;;5064337;28;20074;-73
2022/11/11 05:26:30;;;;;;;6.35;3.80;;;12.60;96.70;;;;;;5062327;28;20051;-75
2022/11/11 05:29:17;;;;;;;4.72;3.85;;;12.60;96.70;;;;;;5062605;28;20052;-73
2022/11/11 05:32:06;;;;;;;5.22;4.47;;;12.60;96.70;;;;;;5054290;28;20051;-73
2022/11/11 05:34:54;;;;;;;6.32;4.18;;;12.70;96.70;;;;;;5059148;28;20211;-73
2022/11/11 05:37:41;;;;;;;4.32;3.72;;;12.60;96.70;;;;;;5060699;28;20178;-73
2022/11/11 05:40:27;;;;;;;5.63;4.10;;;12.60;96.70;;;;;;5059336;28;20165;-73
2022/11/11 05:43:13;;;;;;;5.30;4.57;;;12.60;96.70;;;;;;5056757;28;20087;-73
2022/11/11 05:46:00;;;;;;;4.63;3.80;;;12.60;96.70;;;;;;5050268;28;20522;-74
2022/11/11 05:51:54;;;;;;;7.55;4.43;;;12.60;96.70;;;;;;5057021;28;20536;-74
2022/11/11 05:54:41;;;;;;;4.85;4.25;;;12.50;96.70;;;;;;5051211;28;20058;-73
2022/11/11 05:57:27;;;;;;;4.82;4.32;;;12.50;96.70;;;;;;5062553;28;20178;-73
2022/11/11 06:00:15;;;;;;;4.55;4.05;;;12.50;96.70;;;;;;5061917;28;20063;-73
2022/11/11 06:03:03;;;;;;;6.60;4.68;;;12.50;96.70;;;;;;5060155;28;20465;-73
2022/11/11 06:05:50;;;;;;;4.10;3.70;;;12.40;96.70;;;;;;5057454;28;20418;-74
2022/11/11 06:08:39;;;;;;;5.80;4.25;;;12.50;96.70;;;;;;5061093;28;20059;-73
2022/11/11 06:11:26;;;;;;;8.43;4.15;;;12.50;96.70;;;;;;5060764;28;20055;-74
2022/11/11 06:14:17;;;;;;;5.78;3.97;;;12.40;96.70;;;;;;5050491;28;20068;-73
2022/11/11 06:17:04;;;;;;;6.07;4.20;;;12.40;96.70;;;;;;5053921;28;20126;-74
2022/11/11 06:19:50;;;;;;;6.10;3.90;;;12.40;96.70;;;;;;5060738;28;20290;-75
2022/11/11 06:22:55;;;;;;;6.95;3.92;;;12.40;96.70;;;;;;5058589;28;20048;-73
2022/11/11 06:28:50;;;;;;;5.38;3.78;;;12.50;96.70;;;;;;5055313;28;20409;-74
2022/11/11 06:31:37;;;;;;;4.80;3.40;;;12.50;96.70;;;;;;5060906;28;20146;-74
2022/11/11 06:34:23;;;;;;;5.45;3.83;;;12.50;96.70;;;;;;5060821;28;20055;-74
2022/11/11 06:37:09;;;;;;;4.25;3.85;;;12.60;96.70;;;;;;5055549;28;20063;-73
2022/11/11 06:39:56;;;;;;;5.25;3.85;;;12.50;96.70;;;;;;5057509;28;20059;-73
2022/11/11 06:42:44;;;;;;;6.30;3.92;;;12.50;96.70;;;;;;5058344;28;20079;-74
2022/11/11 06:45:32;;;;;;;7.25;4.25;;;12.60;96.70;;;;;;5052219;28;20055;-73
2022/11/11 06:48:19;;;;;;;4.93;4.20;;;12.50;96.70;;;;;;5061310;28;20142;-74
2022/11/11 06:51:06;;;;;;;5.43;3.80;;;12.50;96.70;;;;;;5060250;28;21137;-74
2022/11/11 06:53:52;;;;;;;5.75;4.07;;;12.60;96.70;;;;;;5061475;28;20427;-74
2022/11/11 06:56:39;;;;;;;6.20;3.97;;;12.70;96.70;;;;;;5060704;28;20097;-74
2022/11/11 06:59:27;;;;;;;8.00;4.25;;;12.70;96.70;;;;;;5059276;28;20087;-75
2022/11/11 07:02:14;;;;;;;9.10;4.68;;;12.80;96.70;;;;;;5062565;28;20625;-73
2022/11/11 07:05:00;;;;;;;11.10;4.57;;;12.80;96.70;;;;;;5059724;28;20107;-74
2022/11/11 07:07:47;;;;;;;7.60;4.38;;;12.90;96.70;;;;;;5060476;28;20101;-73
2022/11/11 07:10:36;;;;;;;7.82;4.50;;;12.90;96.70;;;;;;5054296;28;20070;-72
2022/11/11 07:13:23;;;;;;;9.23;4.32;;;13.00;96.70;;;;;;5057624;28;20457;-73
2022/11/11 07:16:12;;;;;;;5.72;4.43;;;13.10;96.70;;;;;;5049158;28;20070;-73
2022/11/11 07:18:59;;;;;;;7.88;4.30;;;13.20;96.70;;;;;;5058289;28;20052;-74
2022/11/11 07:21:45;;;;;;;7.77;4.23;;;13.30;96.70;;;;;;5053617;28;20071;-73
2022/11/11 07:24:32;;;;;;;8.20;4.47;;;13.40;96.70;;;;;;5059848;28;20388;-73
2022/11/11 07:27:18;;;;;;;6.57;4.53;;;13.50;96.70;;;;;;5055324;28;20825;-73
2022/11/11 07:30:06;;;;;;;9.90;4.60;;;13.60;96.70;;;;;;5058200;28;20498;-73
2022/11/11 07:32:54;;;;;;;6.28;4.20;;;13.70;96.70;;;;;;5056783;28;20058;-73
2022/11/11 07:35:40;;;;;;;5.78;4.25;;;13.80;96.70;;;;;;5052166;28;20206;-72
2022/11/11 07:38:27;;;;;;;8.25;4.25;;;13.90;96.70;;;;;;5055934;28;20052;-72
2022/11/11 07:41:13;;;;;;;9.32;4.63;;;13.90;96.70;;;;;;5052383;28;20102;-72
2022/11/11 07:44:01;;;;;;;5.43;3.92;;;14.00;96.70;;;;;;5062158;28;20504;-72
2022/11/11 07:46:47;;;;;;;7.20;4.50;;;14.10;96.70;;;;;;5051744;28;20055;-72
2022/11/11 07:49:35;;;;;;;6.13;4.88;;;14.10;96.70;;;;;;5057531;28;20141;-72
2022/11/11 07:52:22;;;;;;;8.60;4.63;;;14.20;96.70;;;;;;5054583;28;20547;-72
2022/11/11 07:55:09;;;;;;;;;;;14.30;96.70;;;;;;5056145;28;20524;-74
2022/11/11 07:57:57;;;;;;;8.10;4.32;;;14.40;96.70;;;;;;5054362;28;20720;-73
2022/11/11 08:00:43;;;;;;;6.70;4.28;;;14.40;96.70;;;;;;5057032;28;20059;-73
2022/11/11 08:03:30;;;;;;;11.70;5.03;;;14.50;96.70;;;;;;5055519;28;20190;-73
2022/11/11 08:06:19;;;;;;;6.43;3.40;;;14.60;96.70;;;;;;5059654;28;20052;-72
2022/11/11 08:09:06;;;;;;;10.02;5.22;;;14.70;96.70;;;;;;5062671;28;20175;-71
2022/11/11 08:14:57;;;;;;;6.22;5.40;;;14.80;96.70;;;;;;5055075;28;20059;-72
2022/11/11 08:17:51;;;;;;;7.50;5.43;;;14.90;96.70;;;;;;5060772;28;20566;-71
2022/11/11 08:20:38;;;;;;;7.10;5.43;;;15.00;96.70;;;;;;5047582;28;20529;-73
2022/11/11 08:23:32;;;;;;;10.88;5.18;;;15.10;96.70;;;;;;5049327;28;20525;-72
2022/11/11 08:26:39;;;;;;;7.72;5.63;;;15.20;96.70;;;;;;5049188;28;20097;-72
2022/11/11 08:29:25;;;;;;;7.80;6.35;;;15.30;96.70;;;;;;5061767;28;20063;-72
2022/11/11 08:32:12;;;;;;;7.38;5.72;;;15.40;96.70;;;;;;5056344;28;20861;-73
2022/11/11 08:34:59;;;;;;;7.88;5.13;;;15.60;96.70;;;;;;5060414;28;20550;-72
2022/11/11 08:37:45;;;;;;;8.07;4.27;;;15.70;96.70;;;;;;5059714;28;20410;-73
2022/11/11 08:40:33;;;;;;;4.50;3.55;;;15.80;96.70;;;;;;5057415;28;20054;-72
2022/11/11 08:43:21;;;;;;;5.10;3.17;;;16.00;96.70;;;;;;5064993;28;20059;-73
2022/11/11 08:46:10;;;;;;;3.83;2.80;;;16.10;96.70;;;;;;5052896;28;20052;-73
2022/11/11 08:48:57;;;;;;;4.15;2.05;;;16.30;96.70;;;;;;5055004;28;20138;-72
2022/11/11 08:51:43;;;;;;;3.20;1.88;;;16.40;96.70;;;;;;5058334;28;20528;-73
2022/11/11 08:54:31;;;;;;;2.42;1.67;;;16.50;96.70;;;;;;5059880;28;20800;-73
2022/11/11 08:57:19;;;;;;;3.70;1.92;;;16.70;96.70;;;;;;5057578;28;20573;-74
2022/11/11 09:00:07;;;;;;;3.53;1.88;;;16.90;96.70;;;;;;5057008;28;20044;-74
2022/11/11 09:02:54;;;;;;;3.63;3.13;;;17.00;96.70;;;;;;5059602;28;20106;-74
2022/11/11 09:05:41;;;;;;;2.97;1.75;;;17.10;96.70;;;;;;5059566;28;20589;-74
2022/11/11 09:08:27;;;;;;;3.00;1.83;;;17.20;96.70;;;;;;5057494;28;20178;-74
2022/11/11 09:11:14;;;;;;;;;;;17.30;96.70;;;;;;5058037;28;20645;-73
2022/11/11 09:14:02;;;;;;;2.30;1.10;;;17.40;96.70;;;;;;5060291;28;19934;-74
2022/11/11 09:16:48;;;;;;;1.55;0.98;;;17.40;96.70;;;;;;5062650;28;20071;-74
2022/11/11 09:19:35;;;;;;;3.08;1.10;;;17.50;96.70;;;;;;5060381;28;20529;-74
2022/11/11 09:22:21;;;;;;;1.55;0.80;;;17.60;96.70;;;;;;5063324;28;20113;-73
2022/11/11 09:25:08;;;;;;;2.15;1.05;;;17.70;96.70;;;;;;5059211;28;20579;-73
2022/11/11 09:27:55;;;;;;;1.25;0.82;;;17.80;96.70;;;;;;5063351;28;20524;-72
2022/11/11 09:30:43;;;;;;;1.90;1.10;;;17.90;96.70;;;;;;5057396;28;20051;-73
2022/11/11 09:33:30;;;;;;;1.33;1.17;;;18.10;96.70;;;;;;5049801;28;20056;-72
2022/11/11 09:36:17;;;;;;;1.92;1.10;;;18.20;96.70;;;;;;5058188;28;20171;-73
2022/11/11 09:39:03;;;;;;;;;;;18.30;96.70;;;;;;5057008;28;20405;-73
2022/11/11 09:42:00;;;;;;;2.67;1.00;;;18.40;96.70;;;;;;5057485;28;19943;-72
2022/11/11 09:45:13;;;;;;;1.05;0.90;;;18.50;96.70;;;;;;5057135;28;20551;-74
2022/11/11 09:48:14;;;;;;;6.40;5.57;;;18.50;96.70;;;;;;5060288;28;20161;-73
2022/11/11 09:51:03;;;;;;;2.35;1.17;;;18.60;96.70;;;;;;5063293;28;20051;-75
2022/11/11 09:53:54;;;;;;;1.70;0.90;;;18.70;96.70;;;;;;5057363;28;20163;-75
2022/11/11 09:56:41;;;;;;;2.03;0.80;;;18.70;96.70;;;;;;5061047;28;20051;-74
2022/11/11 09:59:35;;;;;;;1.65;0.80;;;18.90;96.70;;;;;;5054424;28;20569;-74
2022/11/11 10:02:32;;;;;;;0.90;0.60;;;18.90;96.70;;;;;;5055280;28;20429;-75
2022/11/11 10:05:24;;;;;;;2.05;0.73;;;18.90;96.70;;;;;;5053826;28;20422;-74
2022/11/11 10:08:15;;;;;;;1.05;0.75;;;18.90;96.70;;;;;;5058748;28;20193;-73
2022/11/11 10:11:04;;;;;;;1.58;0.82;;;18.90;96.70;;;;;;5059821;28;20141;-74
2022/11/11 10:13:53;;;;;;;0.88;0.70;;;19.10;96.70;;;;;;5054870;28;20105;-72
2022/11/11 10:16:49;;;;;;;5.63;1.23;;;19.20;96.70;;;;;;5058612;28;20052;-75
2022/11/11 10:19:45;;;;;;;2.40;1.10;;;19.30;96.70;;;;;;5062938;28;20054;-74
2022/11/11 10:22:35;;;;;;;3.17;0.80;;;19.40;96.70;;;;;;5059370;28;20579;-75
2022/11/11 10:25:25;;;;;;;1.23;0.90;;;19.40;96.70;;;;;;5054481;28;20064;-75
2022/11/11 10:28:16;;;;;;;2.17;0.68;;;19.50;96.70;;;;;;5061691;28;20536;-74
2022/11/11 10:31:09;;;;;;;1.17;0.77;;;19.40;96.70;;;;;;5060069;28;20055;-75
2022/11/11 10:33:59;;;;;;;0.98;0.70;;;19.50;96.70;;;;;;5055978;28;20051;-74
2022/11/11 10:36:49;;;;;;;2.17;0.73;;;19.40;96.70;;;;;;5055075;28;20924;-73
2022/11/11 10:39:51;;;;;;;1.58;0.70;;;19.50;96.70;;;;;;5062959;28;20068;-74
2022/11/11 10:42:37;;;;;;;1.67;0.80;;;19.50;96.70;;;;;;5060514;28;20060;-73
2022/11/11 10:45:38;;;;;;;1.20;0.80;;;19.50;96.70;;;;;;5059679;28;20051;-73
2022/11/11 10:48:34;;;;;;;1.10;0.80;;;19.70;96.70;;;;;;5049751;28;20102;-74
2022/11/11 10:51:37;;;;;;;1.27;0.70;;;19.70;96.70;;;;;;5056704;28;20515;-74
2022/11/11 10:54:28;;;;;;;1.40;0.70;;;19.80;96.70;;;;;;5059859;28;20050;-74
2022/11/11 10:57:23;;;;;;;1.27;0.88;;;19.90;96.70;;;;;;5062285;28;20178;-74
2022/11/11 11:00:12;;;;;;;2.05;1.10;;;20.10;96.70;;;;;;5056138;28;20080;-75
2022/11/11 11:03:08;;;;;;;1.00;0.63;;;20.30;96.70;;;;;;5057428;28;20059;-73
2022/11/11 11:06:01;;;;;;;2.65;2.10;;;20.30;96.70;;;;;;5057905;28;20059;-74
2022/11/11 11:08:51;;;;;;;1.85;0.75;;;20.40;96.70;;;;;;5056953;28;20063;-74
2022/11/11 11:11:43;;;;;;;0.80;0.60;;;20.50;96.70;;;;;;5051608;28;20056;-74
2022/11/11 11:14:36;;;;;;;1.10;0.90;;;20.60;96.70;;;;;;5057251;28;20076;-74
2022/11/11 11:17:29;;;;;;;3.38;0.80;;;20.60;96.70;;;;;;5060059;28;20050;-75
2022/11/11 11:20:19;;;;;;;2.55;1.00;;;20.60;96.70;;;;;;5055560;28;20079;-74
2022/11/11 11:23:06;;;;;;;1.02;0.88;;;20.70;96.70;;;;;;5053912;28;20048;-74
2022/11/11 11:25:55;;;;;;;0.90;0.60;;;20.80;96.70;;;;;;5060541;28;20131;-74
2022/11/11 11:28:56;;;;;;;1.42;0.90;;;20.90;96.70;;;;;;5056840;28;20052;-74
2022/11/11 11:31:46;;;;;;;2.03;0.70;;;20.90;96.70;;;;;;5057892;28;20525;-74
2022/11/11 11:34:43;;;;;;;0.90;0.70;;;21.00;96.70;;;;;;5054954;28;20055;-75
2022/11/11 11:37:30;;;;;;;1.73;1.05;;;21.10;96.70;;;;;;5063499;28;20571;-74
2022/11/11 11:40:17;;;;;;;1.73;0.60;;;21.10;96.70;;;;;;5064383;28;20197;-74
2022/11/11 11:43:30;;;;;;;2.25;0.90;;;21.20;96.70;;;;;;5061706;28;20562;-75
2022/11/11 11:46:26;;;;;;;1.85;0.98;;;21.30;96.70;;;;;;5054131;28;20782;-74
2022/11/11 11:49:25;;;;;;;2.42;1.10;;;21.40;96.70;;;;;;5055523;28;20241;-74
2022/11/11 11:52:18;;;;;;;1.33;0.77;;;21.40;96.70;;;;;;5061707;28;20052;-75
2022/11/11 11:55:10;;;;;;;1.58;0.73;;;21.50;96.70;;;;;;5062441;28;20405;-75
2022/11/11 11:58:11;;;;;;;1.58;0.85;;;21.50;96.70;;;;;;5061248;28;20591;-75
2022/11/11 12:01:03;;;;;;;1.45;0.80;;;21.60;96.70;;;;;;5060577;28;20156;-74
2022/11/11 12:04:28;;;;;;;0.93;0.60;;;21.70;96.70;;;;;;5063680;28;20110;-74
2022/11/11 12:07:31;;;;;;;0.60;0.60;;;21.70;96.70;;;;;;5062284;28;20536;-75
2022/11/11 12:10:28;;;;;;;2.97;0.73;;;21.80;96.70;;;;;;5061735;28;20060;-75
2022/11/11 12:13:26;;;;;;;1.33;0.85;;;21.90;96.70;;;;;;5055745;28;20109;-74
2022/11/11 12:16:24;;;;;;;0.88;0.60;;;22.00;96.70;;;;;;5062721;28;20051;-75
2022/11/11 12:19:36;;;;;;;0.88;0.60;;;22.00;96.70;;;;;;5048660;28;20051;-75
2022/11/11 12:22:43;;;;;;;0.70;0.60;;;22.00;96.70;;;;;;5059256;28;20059;-75
2022/11/11 12:25:42;;;;;;;15.60;12.45;;;22.00;96.70;;;;;;5065725;28;20763;-76
2022/11/11 12:28:46;;;;;;;3.25;1.98;;;21.90;96.70;;;;;;5052342;28;20069;-75
2022/11/11 12:31:47;;;;;;;1.65;0.70;;;21.90;96.70;;;;;;5063999;28;20455;-75
2022/11/11 12:35:01;;;;;;;0.88;0.80;;;21.90;96.70;;;;;;5062492;28;20098;-76
2022/11/11 12:38:02;;;;;;;1.10;0.80;;;21.90;96.70;;;;;;5059349;28;20060;-75
2022/11/11 12:40:58;;;;;;;1.13;0.90;;;22.00;96.70;;;;;;5061321;28;20168;-75
2022/11/11 12:43:54;;;;;;;0.77;0.70;;;22.00;96.70;;;;;;5055021;28;20106;-75
2022/11/11 12:46:50;;;;;;;1.33;0.77;;;22.00;96.70;;;;;;5055973;28;20238;-76
2022/11/11 12:49:49;;;;;;;1.77;0.75;;;21.90;96.70;;;;;;5058831;28;20129;-75
2022/11/11 12:52:49;;;;;;;0.98;0.50;;;21.90;96.70;;;;;;5060602;28;20546;-75
2022/11/11 12:55:43;;;;;;;1.83;0.80;;;21.90;96.70;;;;;;5060765;28;20241;-74
2022/11/11 12:58:39;;;;;;;1.58;0.82;;;21.80;96.70;;;;;;5059807;28;20537;-75
2022/11/11 13:01:43;;;;;;;2.08;1.00;;;21.70;96.70;;;;;;5060442;28;20615;-75
2022/11/11 13:04:45;;;;;;;0.90;0.80;;;21.80;96.70;;;;;;5058634;28;20733;-74
2022/11/11 13:08:07;;;;;;;1.20;0.90;;;21.90;96.70;;;;;;5056367;28;20071;-75
2022/11/11 13:11:02;;;;;;;2.67;0.70;;;21.90;96.70;;;;;;5052283;28;20608;-75
2022/11/11 13:14:00;;;;;;;1.10;0.75;;;21.80;96.70;;;;;;5053121;28;20048;-75
2022/11/11 13:16:49;;;;;;;1.67;0.70;;;21.80;96.70;;;;;;5063270;28;20067;-75
2022/11/11 13:19:41;;;;;;;0.93;0.60;;;21.80;96.70;;;;;;5057129;28;20060;-75
2022/11/11 13:22:30;;;;;;;0.80;0.65;;;21.80;96.70;;;;;;5059343;28;20174;-74
2022/11/11 13:25:22;;;;;;;2.30;0.75;;;21.70;96.70;;;;;;5053239;28;20643;-74
2022/11/11 13:28:18;;;;;;;2.85;0.80;;;21.70;96.70;;;;;;5058619;28;20055;-73
2022/11/11 13:31:16;;;;;;;1.92;0.63;;;21.70;96.70;;;;;;5057978;28;20047;-73
2022/11/11 13:34:08;;;;;;;3.05;1.98;;;21.70;96.70;;;;;;5055655;28;20091;-74
2022/11/11 13:36:55;;;;;;;6.57;4.90;;;21.70;96.70;;;;;;5061675;28;20559;-73
2022/11/11 13:39:46;;;;;;;1.17;0.70;;;21.70;96.70;;;;;;5051125;28;20198;-74
2022/11/11 13:42:37;;;;;;;1.13;0.80;;;21.70;96.70;;;;;;5051443;28;20043;-73
2022/11/11 13:45:28;;;;;;;0.68;0.50;;;21.70;96.70;;;;;;5059260;28;20152;-73
2022/11/11 13:48:23;;;;;;;1.80;0.70;;;21.60;96.70;;;;;;5056900;28;20067;-74
2022/11/11 13:51:18;;;;;;;2.67;0.90;;;21.60;96.70;;;;;;5055920;28;20058;-74
2022/11/11 13:54:19;;;;;;;0.73;0.60;;;21.60;96.70;;;;;;5052174;28;20066;-74
2022/11/11 13:57:15;;;;;;;2.10;0.75;;;21.50;96.70;;;;;;5054194;28;20094;-72
2022/11/11 14:00:05;;;;;;;2.47;0.97;;;21.40;96.70;;;;;;5055647;28;20129;-73
2022/11/11 14:03:25;;;;;;;1.50;0.70;;;21.30;96.70;;;;;;5054936;28;20150;-72
2022/11/11 14:06:51;;;;;;;2.78;0.93;;;21.30;96.70;;;;;;5054160;28;20064;-71
2022/11/11 14:10:05;;;;;;;3.63;0.75;;;21.20;96.70;;;;;;5055107;28;20191;-73
2022/11/11 14:12:53;;;;;;;0.93;0.57;;;21.10;96.70;;;;;;5033447;28;21507;-73
2022/11/11 14:15:43;;;;;;;1.77;0.60;;;21.10;96.70;;;;;;5055185;28;20164;-72
2022/11/11 14:18:42;;;;;;;0.60;0.52;;;21.00;96.70;;;;;;5051110;28;20543;-73
2022/11/11 14:21:47;;;;;;;1.08;0.70;;;20.90;96.70;;;;;;5055950;28;20098;-73
2022/11/11 14:24:39;;;;;;;0.90;0.70;;;20.90;96.70;;;;;;5056845;28;20198;-73
2022/11/11 14:27:29;;;;;;;1.25;0.70;;;20.80;96.70;;;;;;5050409;28;20201;-73
2022/11/11 14:30:37;;;;;;;2.03;0.63;;;20.70;96.70;;;;;;5056698;28;20105;-73
2022/11/11 14:33:39;;;;;;;3.08;1.15;;;20.60;96.70;;;;;;5054692;28;20562;-73
2022/11/11 14:36:35;;;;;;;1.10;0.63;;;20.60;96.70;;;;;;5046165;28;20056;-73
2022/11/11 14:39:45;;;;;;;1.52;0.65;;;20.60;96.70;;;;;;5055679;28;20064;-72
2022/11/11 14:42:46;;;;;;;7.93;6.40;;;20.50;96.70;;;;;;5056713;28;20201;-74
2022/11/11 14:45:59;;;;;;;4.35;2.50;;;20.50;96.70;;;;;;5057646;28;20210;-73
2022/11/11 14:49:00;;;;;;;2.15;1.60;;;20.40;96.70;;;;;;5051849;28;20198;-74
2022/11/11 14:51:52;;;;;;;2.13;1.90;;;20.30;96.70;;;;;;5052781;28;20090;-73
2022/11/11 14:55:01;;;;;;;2.30;1.70;;;20.30;96.70;;;;;;5060346;28;20517;-71
2022/11/11 14:57:49;;;;;;;;;;;20.20;96.70;;;;;;5057533;28;20055;-72
2022/11/11 15:00:45;;;;;;;3.20;1.45;;;20.10;96.70;;;;;;5053714;28;19930;-72
2022/11/11 15:03:37;;;;;;;2.17;1.40;;;20.00;96.70;;;;;;5059685;28;20067;-72
2022/11/11 15:06:27;;;;;;;1.45;1.15;;;20.00;96.70;;;;;;5051230;28;20644;-73
2022/11/11 15:09:33;;;;;;;3.47;1.45;;;20.00;96.70;;;;;;5057903;28;20154;-71
2022/11/11 15:12:30;;;;;;;2.00;1.52;;;20.00;96.70;;;;;;5060060;28;20063;-72
2022/11/11 15:15:23;;;;;;;2.78;2.47;;;20.00;96.70;;;;;;5056874;28;20055;-71
2022/11/11 15:18:26;;;;;;;2.80;1.85;;;20.00;96.70;;;;;;5058769;28;20548;-71
2022/11/11 15:21:19;;;;;;;2.08;1.70;;;19.90;96.70;;;;;;5058515;28;20453;-73
2022/11/11 15:24:19;;;;;;;2.28;1.40;;;19.80;96.70;;;;;;5059967;28;20045;-73
2022/11/11 15:27:15;;;;;;;2.72;1.60;;;19.70;96.70;;;;;;5054894;28;20063;-73
2022/11/11 15:30:12;;;;;;;1.90;1.30;;;19.60;96.70;;;;;;5052990;28;20418;-73
2022/11/11 15:33:08;;;;;;;5.05;1.77;;;19.40;96.70;;;;;;5051022;28;20064;-73
2022/11/11 15:36:00;;;;;;;4.07;1.67;;;19.30;96.70;;;;;;5058273;28;20056;-73
2022/11/11 15:38:58;;;;;;;3.25;1.73;;;19.10;96.70;;;;;;5058941;28;20659;-73
2022/11/11 15:41:48;;;;;;;2.55;1.60;;;18.90;96.70;;;;;;5060077;28;20121;-74
2022/11/11 15:44:36;;;;;;;2.38;1.42;;;18.80;96.70;;;;;;5047096;28;20056;-74
2022/11/11 15:47:22;;;;;;;6.47;4.53;;;18.60;96.70;;;;;;5061626;28;20198;-74
2022/11/11 15:50:26;;;;;;;17.65;13.15;;;18.50;96.70;;;;;;5054010;28;20087;-71
2022/11/11 15:53:14;;;;;;;32.40;25.38;;;18.50;96.70;;;;;;5051029;28;20064;-73
2022/11/11 15:56:01;;;;;;;28.17;23.02;;;18.40;96.70;;;;;;5056055;28;20876;-73
2022/11/11 15:58:47;;;;;;;13.70;10.60;;;18.30;96.70;;;;;;5049954;28;20182;-73
2022/11/11 16:01:34;;;;;;;9.57;6.63;;;18.20;96.70;;;;;;5061059;28;20182;-73
2022/11/11 16:04:23;;;;;;;6.80;5.50;;;18.20;96.70;;;;;;5054752;28;20059;-73
2022/11/11 16:07:35;;;;;;;3.78;2.05;;;18.10;96.70;;;;;;5048000;28;20055;-72
2022/11/11 16:10:27;;;;;;;3.13;2.05;;;18.00;96.70;;;;;;5050467;28;20422;-72
2022/11/11 16:13:17;;;;;;;2.17;1.98;;;17.90;96.70;;;;;;5051022;28;20056;-72
2022/11/11 16:16:08;;;;;;;4.65;2.63;;;17.80;96.70;;;;;;5059516;28;20060;-73
2022/11/11 16:18:58;;;;;;;3.42;2.72;;;17.70;96.70;;;;;;5054854;28;20184;-73